createdAt,value
2017-08-13T00:00:19.733Z,67.56
2017-08-13T00:02:47.247Z,67.79
2017-08-13T00:05:14.730Z,68.13
2017-08-13T00:07:42.227Z,68.27
2017-08-13T00:10:09.771Z,68.13
2017-08-13T00:12:37.250Z,68.33
2017-08-13T00:15:04.768Z,68.56
2017-08-13T00:17:32.301Z,68.53
2017-08-13T00:19:59.836Z,68.52
2017-08-13T00:22:27.308Z,68.83
2017-08-13T00:24:54.821Z,68.58
2017-08-13T00:27:22.288Z,68.47
2017-08-13T00:29:49.772Z,68.55
2017-08-13T00:32:17.288Z,69.05
2017-08-13T00:34:44.768Z,69.24
2017-08-13T00:37:12.260Z,69.08
2017-08-13T00:39:39.773Z,68.83
2017-08-13T00:42:07.336Z,69.61
2017-08-13T00:44:34.840Z,69.28
2017-08-13T00:47:02.376Z,68.89
2017-08-13T00:49:29.886Z,68.49
2017-08-13T00:51:57.381Z,69.18
2017-08-13T00:54:24.947Z,68.52
2017-08-13T00:56:52.445Z,68.54
2017-08-13T00:59:19.922Z,68.58
2017-08-13T01:01:47.480Z,68.81
2017-08-13T01:04:14.980Z,68.63
2017-08-13T01:06:42.517Z,68.61
2017-08-13T01:09:10.057Z,69.40
2017-08-13T01:11:37.533Z,69.03
2017-08-13T01:14:05.017Z,68.78
2017-08-13T01:16:32.525Z,68.94
2017-08-13T01:19:00.076Z,68.44
2017-08-13T01:21:27.578Z,68.37
2017-08-13T01:23:55.106Z,68.79
2017-08-13T01:26:22.579Z,68.76
2017-08-13T01:28:50.121Z,68.63
2017-08-13T01:31:17.656Z,68.38
2017-08-13T01:33:45.129Z,68.21
2017-08-13T01:36:12.629Z,68.26
2017-08-13T01:38:40.186Z,68.12
2017-08-13T01:41:07.657Z,67.58
2017-08-13T01:43:35.140Z,67.40
2017-08-13T01:46:02.657Z,67.53
2017-08-13T01:48:30.162Z,67.55
2017-08-13T01:50:57.642Z,67.39
2017-08-13T01:53:25.315Z,67.67
2017-08-13T01:55:52.867Z,67.59
2017-08-13T01:58:20.349Z,67.40
2017-08-13T02:00:47.897Z,67.36
2017-08-13T02:03:15.384Z,67.43
2017-08-13T02:05:42.889Z,67.59
2017-08-13T02:08:10.428Z,67.41
2017-08-13T02:10:37.919Z,67.69
2017-08-13T02:13:05.448Z,67.90
2017-08-13T02:15:32.969Z,67.79
2017-08-13T02:18:00.466Z,67.77
2017-08-13T02:20:27.951Z,67.75
2017-08-13T02:22:55.492Z,67.78
2017-08-13T02:25:22.987Z,67.61
2017-08-13T02:27:50.554Z,67.74
2017-08-13T02:30:18.106Z,67.69
2017-08-13T02:32:45.569Z,67.64
2017-08-13T02:35:13.053Z,67.55
2017-08-13T02:37:40.557Z,67.51
2017-08-13T02:40:08.148Z,67.54
2017-08-13T02:42:35.704Z,67.60
2017-08-13T02:45:03.230Z,67.67
2017-08-13T02:47:30.792Z,67.69
2017-08-13T02:49:58.296Z,67.44
2017-08-13T02:52:25.823Z,67.45
2017-08-13T02:54:53.294Z,67.62
2017-08-13T02:57:20.761Z,67.47
2017-08-13T02:59:48.297Z,67.34
